sensor_id;sensor_type;location;lat;lon;timestamp;P1;durP1;ratioP1;P2;durP2;ratioP2
18793;SDS011;29610;49.022;12.114;2023-02-28T00:00:37;9.60;;;4.15;;
18793;SDS011;29610;49.022;12.114;2023-02-28T00:03:06;7.72;;;3.97;;
18793;SDS011;29610;49.022;12.114;2023-02-28T00:05:35;9.10;;;4.40;;
18793;SDS011;29610;49.022;12.114;2023-02-28T00:08:03;7.78;;;3.70;;
18793;SDS011;29610;49.022;12.114;2023-02-28T00:10:33;8.80;;;3.97;;
18793;SDS011;29610;49.022;12.114;2023-02-28T00:13:02;5.65;;;3.47;;
18793;SDS011;29610;49.022;12.114;2023-02-28T00:15:33;7.80;;;3.80;;
18793;SDS011;29610;49.022;12.114;2023-02-28T00:18:03;10.13;;;3.70;;
18793;SDS011;29610;49.022;12.114;2023-02-28T00:20:32;11.75;;;4.93;;
18793;SDS011;29610;49.022;12.114;2023-02-28T00:23:01;8.85;;;4.47;;
18793;SDS011;29610;49.022;12.114;2023-02-28T00:25:29;9.23;;;4.00;;
18793;SDS011;29610;49.022;12.114;2023-02-28T00:27:58;6.75;;;3.45;;
18793;SDS011;29610;49.022;12.114;2023-02-28T00:30:26;6.20;;;3.17;;
18793;SDS011;29610;49.022;12.114;2023-02-28T00:32:55;9.65;;;4.30;;
18793;SDS011;29610;49.022;12.114;2023-02-28T00:35:25;9.00;;;3.58;;
18793;SDS011;29610;49.022;12.114;2023-02-28T00:37:54;11.05;;;4.75;;
18793;SDS011;29610;49.022;12.114;2023-02-28T00:40:22;8.75;;;4.70;;
18793;SDS011;29610;49.022;12.114;2023-02-28T00:42:52;8.85;;;4.05;;
18793;SDS011;29610;49.022;12.114;2023-02-28T00:45:21;10.55;;;4.40;;
18793;SDS011;29610;49.022;12.114;2023-02-28T00:47:49;9.57;;;4.82;;
18793;SDS011;29610;49.022;12.114;2023-02-28T00:50:19;10.95;;;4.47;;
18793;SDS011;29610;49.022;12.114;2023-02-28T00:52:50;7.78;;;3.50;;
18793;SDS011;29610;49.022;12.114;2023-02-28T00:55:19;8.15;;;4.53;;
18793;SDS011;29610;49.022;12.114;2023-02-28T00:57:48;9.85;;;4.50;;
18793;SDS011;29610;49.022;12.114;2023-02-28T01:00:17;8.20;;;4.20;;
18793;SDS011;29610;49.022;12.114;2023-02-28T01:02:46;11.38;;;4.30;;
18793;SDS011;29610;49.022;12.114;2023-02-28T01:05:15;9.18;;;4.50;;
18793;SDS011;29610;49.022;12.114;2023-02-28T01:07:44;8.30;;;4.10;;
18793;SDS011;29610;49.022;12.114;2023-02-28T01:10:14;7.63;;;3.97;;
18793;SDS011;29610;49.022;12.114;2023-02-28T01:12:43;9.30;;;4.65;;
18793;SDS011;29610;49.022;12.114;2023-02-28T01:15:14;14.27;;;4.65;;
18793;SDS011;29610;49.022;12.114;2023-02-28T01:17:44;9.13;;;4.35;;
18793;SDS011;29610;49.022;12.114;2023-02-28T01:20:12;8.13;;;4.43;;
18793;SDS011;29610;49.022;12.114;2023-02-28T01:22:41;9.15;;;4.28;;
18793;SDS011;29610;49.022;12.114;2023-02-28T01:25:11;12.05;;;4.93;;
18793;SDS011;29610;49.022;12.114;2023-02-28T01:27:41;8.77;;;4.22;;
18793;SDS011;29610;49.022;12.114;2023-02-28T01:30:10;9.82;;;5.20;;
18793;SDS011;29610;49.022;12.114;2023-02-28T01:32:39;11.43;;;4.50;;
18793;SDS011;29610;49.022;12.114;2023-02-28T01:35:08;8.88;;;5.32;;
18793;SDS011;29610;49.022;12.114;2023-02-28T01:37:37;10.27;;;4.68;;
18793;SDS011;29610;49.022;12.114;2023-02-28T01:40:06;8.45;;;4.00;;
18793;SDS011;29610;49.022;12.114;2023-02-28T01:42:36;8.43;;;3.67;;
18793;SDS011;29610;49.022;12.114;2023-02-28T01:45:18;9.82;;;3.47;;
18793;SDS011;29610;49.022;12.114;2023-02-28T01:47:52;10.27;;;4.90;;
18793;SDS011;29610;49.022;12.114;2023-02-28T01:50:29;7.97;;;4.53;;
18793;SDS011;29610;49.022;12.114;2023-02-28T01:53:04;9.18;;;4.68;;
18793;SDS011;29610;49.022;12.114;2023-02-28T01:55:36;8.18;;;4.57;;
18793;SDS011;29610;49.022;12.114;2023-02-28T01:58:07;9.05;;;4.53;;
18793;SDS011;29610;49.022;12.114;2023-02-28T02:00:38;9.05;;;4.47;;
18793;SDS011;29610;49.022;12.114;2023-02-28T02:03:10;8.95;;;3.80;;
18793;SDS011;29610;49.022;12.114;2023-02-28T02:05:43;9.63;;;4.55;;
18793;SDS011;29610;49.022;12.114;2023-02-28T02:08:15;11.30;;;5.05;;
18793;SDS011;29610;49.022;12.114;2023-02-28T02:10:48;9.35;;;4.47;;
18793;SDS011;29610;49.022;12.114;2023-02-28T02:16:33;8.73;;;4.93;;
18793;SDS011;29610;49.022;12.114;2023-02-28T02:19:25;8.68;;;4.57;;
18793;SDS011;29610;49.022;12.114;2023-02-28T02:22:49;7.70;;;3.72;;
18793;SDS011;29610;49.022;12.114;2023-02-28T02:25:49;8.95;;;4.60;;
18793;SDS011;29610;49.022;12.114;2023-02-28T02:28:33;10.27;;;4.88;;
18793;SDS011;29610;49.022;12.114;2023-02-28T02:31:38;9.02;;;4.20;;
18793;SDS011;29610;49.022;12.114;2023-02-28T02:34:50;9.20;;;3.95;;
18793;SDS011;29610;49.022;12.114;2023-02-28T02:37:33;10.73;;;4.55;;
18793;SDS011;29610;49.022;12.114;2023-02-28T02:40:11;10.50;;;5.03;;
18793;SDS011;29610;49.022;12.114;2023-02-28T02:42:48;10.48;;;5.15;;
18793;SDS011;29610;49.022;12.114;2023-02-28T02:45:24;10.02;;;4.70;;
18793;SDS011;29610;49.022;12.114;2023-02-28T02:48:03;7.30;;;4.20;;
18793;SDS011;29610;49.022;12.114;2023-02-28T02:50:38;9.38;;;4.65;;
18793;SDS011;29610;49.022;12.114;2023-02-28T02:53:13;8.73;;;4.70;;
18793;SDS011;29610;49.022;12.114;2023-02-28T02:55:49;9.60;;;4.88;;
18793;SDS011;29610;49.022;12.114;2023-02-28T02:58:24;11.70;;;5.45;;
18793;SDS011;29610;49.022;12.114;2023-02-28T03:00:59;9.32;;;4.53;;
18793;SDS011;29610;49.022;12.114;2023-02-28T03:03:31;9.63;;;3.88;;
18793;SDS011;29610;49.022;12.114;2023-02-28T03:06:03;9.40;;;4.80;;
18793;SDS011;29610;49.022;12.114;2023-02-28T03:08:34;11.55;;;4.95;;
18793;SDS011;29610;49.022;12.114;2023-02-28T03:11:06;8.10;;;4.70;;
18793;SDS011;29610;49.022;12.114;2023-02-28T03:13:44;9.55;;;4.50;;
18793;SDS011;29610;49.022;12.114;2023-02-28T03:16:54;11.75;;;5.38;;
18793;SDS011;29610;49.022;12.114;2023-02-28T03:19:55;8.93;;;4.90;;
18793;SDS011;29610;49.022;12.114;2023-02-28T03:22:53;7.97;;;4.28;;
18793;SDS011;29610;49.022;12.114;2023-02-28T03:25:37;10.77;;;5.20;;
18793;SDS011;29610;49.022;12.114;2023-02-28T03:28:23;11.35;;;5.13;;
18793;SDS011;29610;49.022;12.114;2023-02-28T03:31:06;8.98;;;4.75;;
18793;SDS011;29610;49.022;12.114;2023-02-28T03:33:44;9.23;;;4.57;;
18793;SDS011;29610;49.022;12.114;2023-02-28T03:36:21;13.70;;;5.90;;
18793;SDS011;29610;49.022;12.114;2023-02-28T03:38:56;14.02;;;6.10;;
18793;SDS011;29610;49.022;12.114;2023-02-28T03:41:32;10.93;;;5.70;;
18793;SDS011;29610;49.022;12.114;2023-02-28T03:44:12;8.55;;;4.82;;
18793;SDS011;29610;49.022;12.114;2023-02-28T03:46:47;11.68;;;6.07;;
18793;SDS011;29610;49.022;12.114;2023-02-28T03:49:24;9.35;;;5.32;;
18793;SDS011;29610;49.022;12.114;2023-02-28T03:52:01;9.65;;;5.70;;
18793;SDS011;29610;49.022;12.114;2023-02-28T03:54:36;13.90;;;5.88;;
18793;SDS011;29610;49.022;12.114;2023-02-28T03:57:15;9.15;;;5.50;;
18793;SDS011;29610;49.022;12.114;2023-02-28T03:59:56;10.75;;;6.40;;
18793;SDS011;29610;49.022;12.114;2023-02-28T04:02:37;10.50;;;5.20;;
18793;SDS011;29610;49.022;12.114;2023-02-28T04:05:07;10.02;;;4.85;;
18793;SDS011;29610;49.022;12.114;2023-02-28T04:07:36;28.00;;;6.60;;
18793;SDS011;29610;49.022;12.114;2023-02-28T04:10:07;11.68;;;5.32;;
18793;SDS011;29610;49.022;12.114;2023-02-28T04:12:37;11.95;;;5.70;;
18793;SDS011;29610;49.022;12.114;2023-02-28T04:15:07;12.25;;;6.22;;
18793;SDS011;29610;49.022;12.114;2023-02-28T04:17:37;9.75;;;5.07;;
18793;SDS011;29610;49.022;12.114;2023-02-28T04:20:06;12.25;;;6.60;;
18793;SDS011;29610;49.022;12.114;2023-02-28T04:22:37;11.48;;;5.88;;
18793;SDS011;29610;49.022;12.114;2023-02-28T04:25:07;12.93;;;6.32;;
18793;SDS011;29610;49.022;12.114;2023-02-28T04:27:36;10.93;;;5.78;;
18793;SDS011;29610;49.022;12.114;2023-02-28T04:30:05;11.43;;;5.70;;
18793;SDS011;29610;49.022;12.114;2023-02-28T04:32:35;12.38;;;6.28;;
18793;SDS011;29610;49.022;12.114;2023-02-28T04:35:04;11.50;;;5.80;;
18793;SDS011;29610;49.022;12.114;2023-02-28T04:37:37;11.80;;;5.38;;
18793;SDS011;29610;49.022;12.114;2023-02-28T04:40:08;10.98;;;5.97;;
18793;SDS011;29610;49.022;12.114;2023-02-28T04:42:38;10.50;;;5.97;;
18793;SDS011;29610;49.022;12.114;2023-02-28T04:45:07;10.55;;;5.93;;
18793;SDS011;29610;49.022;12.114;2023-02-28T04:47:37;12.27;;;6.43;;
18793;SDS011;29610;49.022;12.114;2023-02-28T04:50:06;12.45;;;5.80;;
18793;SDS011;29610;49.022;12.114;2023-02-28T04:52:36;11.60;;;5.65;;
18793;SDS011;29610;49.022;12.114;2023-02-28T04:55:05;11.40;;;5.55;;
18793;SDS011;29610;49.022;12.114;2023-02-28T04:57:36;10.02;;;5.50;;
18793;SDS011;29610;49.022;12.114;2023-02-28T05:00:05;13.50;;;6.65;;
18793;SDS011;29610;49.022;12.114;2023-02-28T05:02:38;13.07;;;5.35;;
18793;SDS011;29610;49.022;12.114;2023-02-28T05:05:06;11.15;;;6.10;;
18793;SDS011;29610;49.022;12.114;2023-02-28T05:07:36;11.05;;;5.88;;
18793;SDS011;29610;49.022;12.114;2023-02-28T05:10:05;13.13;;;5.53;;
18793;SDS011;29610;49.022;12.114;2023-02-28T05:12:36;17.27;;;5.80;;
18793;SDS011;29610;49.022;12.114;2023-02-28T05:15:05;13.05;;;5.85;;
18793;SDS011;29610;49.022;12.114;2023-02-28T05:17:40;12.52;;;6.38;;
18793;SDS011;29610;49.022;12.114;2023-02-28T05:20:10;15.23;;;6.82;;
18793;SDS011;29610;49.022;12.114;2023-02-28T05:22:42;14.88;;;6.50;;
18793;SDS011;29610;49.022;12.114;2023-02-28T05:25:13;11.55;;;5.95;;
18793;SDS011;29610;49.022;12.114;2023-02-28T05:27:45;12.07;;;6.13;;
18793;SDS011;29610;49.022;12.114;2023-02-28T05:30:15;10.20;;;6.32;;
18793;SDS011;29610;49.022;12.114;2023-02-28T05:32:44;11.50;;;5.85;;
18793;SDS011;29610;49.022;12.114;2023-02-28T05:35:19;9.65;;;6.05;;
18793;SDS011;29610;49.022;12.114;2023-02-28T05:37:47;9.23;;;5.40;;
18793;SDS011;29610;49.022;12.114;2023-02-28T05:40:18;14.60;;;6.65;;
18793;SDS011;29610;49.022;12.114;2023-02-28T05:42:47;13.07;;;6.38;;
18793;SDS011;29610;49.022;12.114;2023-02-28T05:45:17;10.25;;;6.15;;
18793;SDS011;29610;49.022;12.114;2023-02-28T05:47:46;10.25;;;5.60;;
18793;SDS011;29610;49.022;12.114;2023-02-28T05:50:15;13.07;;;6.38;;
18793;SDS011;29610;49.022;12.114;2023-02-28T05:52:44;13.35;;;5.97;;
18793;SDS011;29610;49.022;12.114;2023-02-28T05:55:18;12.50;;;6.45;;
18793;SDS011;29610;49.022;12.114;2023-02-28T05:57:47;10.98;;;6.00;;
18793;SDS011;29610;49.022;12.114;2023-02-28T06:00:16;11.32;;;5.68;;
18793;SDS011;29610;49.022;12.114;2023-02-28T06:02:45;10.60;;;4.95;;
18793;SDS011;29610;49.022;12.114;2023-02-28T06:05:14;11.95;;;6.05;;
18793;SDS011;29610;49.022;12.114;2023-02-28T06:07:45;12.90;;;6.40;;
18793;SDS011;29610;49.022;12.114;2023-02-28T06:10:13;12.40;;;5.65;;
18793;SDS011;29610;49.022;12.114;2023-02-28T06:12:44;12.25;;;5.72;;
18793;SDS011;29610;49.022;12.114;2023-02-28T06:15:13;13.60;;;5.63;;
18793;SDS011;29610;49.022;12.114;2023-02-28T06:17:43;15.40;;;6.95;;
18793;SDS011;29610;49.022;12.114;2023-02-28T06:20:13;9.27;;;5.60;;
18793;SDS011;29610;49.022;12.114;2023-02-28T06:22:42;13.23;;;5.95;;
18793;SDS011;29610;49.022;12.114;2023-02-28T06:25:11;11.18;;;5.20;;
18793;SDS011;29610;49.022;12.114;2023-02-28T06:27:40;13.13;;;5.75;;
18793;SDS011;29610;49.022;12.114;2023-02-28T06:30:11;11.35;;;5.22;;
18793;SDS011;29610;49.022;12.114;2023-02-28T06:32:41;13.18;;;6.10;;
18793;SDS011;29610;49.022;12.114;2023-02-28T06:35:09;11.82;;;6.10;;
18793;SDS011;29610;49.022;12.114;2023-02-28T06:37:38;10.55;;;5.80;;
18793;SDS011;29610;49.022;12.114;2023-02-28T06:40:09;11.32;;;6.03;;
18793;SDS011;29610;49.022;12.114;2023-02-28T06:42:41;10.82;;;5.28;;
18793;SDS011;29610;49.022;12.114;2023-02-28T06:45:12;15.25;;;5.32;;
18793;SDS011;29610;49.022;12.114;2023-02-28T06:47:42;11.13;;;5.68;;
18793;SDS011;29610;49.022;12.114;2023-02-28T06:50:11;10.73;;;5.38;;
18793;SDS011;29610;49.022;12.114;2023-02-28T06:52:40;11.05;;;5.05;;
18793;SDS011;29610;49.022;12.114;2023-02-28T06:55:09;10.15;;;5.43;;
18793;SDS011;29610;49.022;12.114;2023-02-28T06:57:37;12.80;;;6.15;;
18793;SDS011;29610;49.022;12.114;2023-02-28T07:00:07;14.38;;;5.60;;
18793;SDS011;29610;49.022;12.114;2023-02-28T07:02:39;9.98;;;5.53;;
18793;SDS011;29610;49.022;12.114;2023-02-28T07:05:08;11.27;;;5.45;;
18793;SDS011;29610;49.022;12.114;2023-02-28T07:07:36;12.85;;;6.20;;
18793;SDS011;29610;49.022;12.114;2023-02-28T07:10:09;13.20;;;6.03;;
18793;SDS011;29610;49.022;12.114;2023-02-28T07:12:40;13.27;;;5.65;;
18793;SDS011;29610;49.022;12.114;2023-02-28T07:15:09;13.40;;;5.82;;
18793;SDS011;29610;49.022;12.114;2023-02-28T07:17:39;16.67;;;5.88;;
18793;SDS011;29610;49.022;12.114;2023-02-28T07:20:08;10.70;;;4.85;;
18793;SDS011;29610;49.022;12.114;2023-02-28T07:22:38;10.20;;;5.10;;
18793;SDS011;29610;49.022;12.114;2023-02-28T07:25:07;9.70;;;4.75;;
18793;SDS011;29610;49.022;12.114;2023-02-28T07:27:36;26.05;;;5.82;;
18793;SDS011;29610;49.022;12.114;2023-02-28T07:30:07;9.52;;;5.80;;
18793;SDS011;29610;49.022;12.114;2023-02-28T07:32:39;9.90;;;5.17;;
18793;SDS011;29610;49.022;12.114;2023-02-28T07:35:10;14.55;;;6.10;;
18793;SDS011;29610;49.022;12.114;2023-02-28T07:37:39;11.70;;;5.70;;
18793;SDS011;29610;49.022;12.114;2023-02-28T07:40:09;10.80;;;5.55;;
18793;SDS011;29610;49.022;12.114;2023-02-28T07:42:40;12.63;;;5.47;;
18793;SDS011;29610;49.022;12.114;2023-02-28T07:45:10;11.25;;;5.40;;
18793;SDS011;29610;49.022;12.114;2023-02-28T07:47:41;10.63;;;5.30;;
18793;SDS011;29610;49.022;12.114;2023-02-28T07:50:11;12.55;;;5.93;;
18793;SDS011;29610;49.022;12.114;2023-02-28T07:52:42;10.85;;;5.72;;
18793;SDS011;29610;49.022;12.114;2023-02-28T07:55:11;13.80;;;6.50;;
18793;SDS011;29610;49.022;12.114;2023-02-28T07:57:40;10.77;;;5.35;;
18793;SDS011;29610;49.022;12.114;2023-02-28T08:00:10;12.02;;;5.30;;
18793;SDS011;29610;49.022;12.114;2023-02-28T08:02:41;11.95;;;5.38;;
18793;SDS011;29610;49.022;12.114;2023-02-28T08:05:10;11.02;;;5.60;;
18793;SDS011;29610;49.022;12.114;2023-02-28T08:07:39;14.63;;;6.25;;
18793;SDS011;29610;49.022;12.114;2023-02-28T08:10:08;12.30;;;6.65;;
18793;SDS011;29610;49.022;12.114;2023-02-28T08:12:38;11.57;;;6.30;;
18793;SDS011;29610;49.022;12.114;2023-02-28T08:15:07;11.37;;;6.00;;
18793;SDS011;29610;49.022;12.114;2023-02-28T08:17:37;10.63;;;5.70;;
18793;SDS011;29610;49.022;12.114;2023-02-28T08:20:07;10.90;;;5.67;;
18793;SDS011;29610;49.022;12.114;2023-02-28T08:22:37;11.90;;;5.50;;
18793;SDS011;29610;49.022;12.114;2023-02-28T08:25:11;10.97;;;5.63;;
18793;SDS011;29610;49.022;12.114;2023-02-28T08:27:40;15.03;;;6.20;;
18793;SDS011;29610;49.022;12.114;2023-02-28T08:30:09;17.83;;;6.17;;
18793;SDS011;29610;49.022;12.114;2023-02-28T08:32:40;12.80;;;5.63;;
18793;SDS011;29610;49.022;12.114;2023-02-28T08:35:10;12.03;;;6.10;;
18793;SDS011;29610;49.022;12.114;2023-02-28T08:37:39;11.43;;;6.03;;
18793;SDS011;29610;49.022;12.114;2023-02-28T08:40:08;10.43;;;5.77;;
18793;SDS011;29610;49.022;12.114;2023-02-28T08:42:40;10.53;;;5.40;;
18793;SDS011;29610;49.022;12.114;2023-02-28T08:45:09;12.67;;;6.80;;
18793;SDS011;29610;49.022;12.114;2023-02-28T08:47:38;12.67;;;5.93;;
18793;SDS011;29610;49.022;12.114;2023-02-28T08:50:07;16.50;;;5.90;;
18793;SDS011;29610;49.022;12.114;2023-02-28T08:52:42;11.07;;;5.47;;
18793;SDS011;29610;49.022;12.114;2023-02-28T08:55:11;15.03;;;6.00;;
18793;SDS011;29610;49.022;12.114;2023-02-28T08:57:39;11.30;;;6.30;;
18793;SDS011;29610;49.022;12.114;2023-02-28T09:00:08;16.37;;;6.53;;
18793;SDS011;29610;49.022;12.114;2023-02-28T09:02:40;11.63;;;6.30;;
18793;SDS011;29610;49.022;12.114;2023-02-28T09:05:11;13.87;;;6.70;;
18793;SDS011;29610;49.022;12.114;2023-02-28T09:07:40;13.73;;;6.30;;
18793;SDS011;29610;49.022;12.114;2023-02-28T09:10:09;14.10;;;5.70;;
18793;SDS011;29610;49.022;12.114;2023-02-28T09:12:38;12.70;;;6.00;;
18793;SDS011;29610;49.022;12.114;2023-02-28T09:15:07;17.27;;;6.37;;
18793;SDS011;29610;49.022;12.114;2023-02-28T09:17:37;13.43;;;5.60;;
18793;SDS011;29610;49.022;12.114;2023-02-28T09:20:07;12.90;;;5.90;;
18793;SDS011;29610;49.022;12.114;2023-02-28T09:22:39;12.20;;;6.60;;
18793;SDS011;29610;49.022;12.114;2023-02-28T09:25:07;11.40;;;6.30;;
18793;SDS011;29610;49.022;12.114;2023-02-28T09:27:36;14.13;;;6.47;;
18793;SDS011;29610;49.022;12.114;2023-02-28T09:30:05;13.97;;;6.97;;
18793;SDS011;29610;49.022;12.114;2023-02-28T09:32:35;14.00;;;6.47;;
18793;SDS011;29610;49.022;12.114;2023-02-28T09:35:04;22.53;;;6.70;;
18793;SDS011;29610;49.022;12.114;2023-02-28T09:37:41;13.40;;;6.57;;
18793;SDS011;29610;49.022;12.114;2023-02-28T09:40:10;13.63;;;7.10;;
18793;SDS011;29610;49.022;12.114;2023-02-28T09:42:45;12.57;;;5.73;;
18793;SDS011;29610;49.022;12.114;2023-02-28T09:45:22;11.23;;;5.53;;
18793;SDS011;29610;49.022;12.114;2023-02-28T09:47:58;12.93;;;6.20;;
18793;SDS011;29610;49.022;12.114;2023-02-28T09:50:33;12.90;;;6.50;;
18793;SDS011;29610;49.022;12.114;2023-02-28T09:53:10;16.33;;;6.70;;
18793;SDS011;29610;49.022;12.114;2023-02-28T09:55:50;11.50;;;6.13;;
18793;SDS011;29610;49.022;12.114;2023-02-28T09:58:26;13.37;;;6.77;;
18793;SDS011;29610;49.022;12.114;2023-02-28T10:01:06;15.33;;;7.10;;
18793;SDS011;29610;49.022;12.114;2023-02-28T10:03:46;10.97;;;6.73;;
18793;SDS011;29610;49.022;12.114;2023-02-28T10:06:26;10.53;;;6.20;;
18793;SDS011;29610;49.022;12.114;2023-02-28T10:09:02;17.33;;;7.13;;
18793;SDS011;29610;49.022;12.114;2023-02-28T10:11:40;13.10;;;6.40;;
18793;SDS011;29610;49.022;12.114;2023-02-28T10:14:17;11.23;;;6.30;;
18793;SDS011;29610;49.022;12.114;2023-02-28T10:16:51;11.53;;;5.93;;
18793;SDS011;29610;49.022;12.114;2023-02-28T10:19:25;16.03;;;6.63;;
18793;SDS011;29610;49.022;12.114;2023-02-28T10:22:02;12.20;;;6.20;;
18793;SDS011;29610;49.022;12.114;2023-02-28T10:24:41;12.90;;;5.90;;
18793;SDS011;29610;49.022;12.114;2023-02-28T10:27:13;18.10;;;7.10;;
18793;SDS011;29610;49.022;12.114;2023-02-28T10:29:45;14.20;;;5.57;;
18793;SDS011;29610;49.022;12.114;2023-02-28T10:32:17;11.93;;;6.53;;
18793;SDS011;29610;49.022;12.114;2023-02-28T10:34:50;15.60;;;7.13;;
18793;SDS011;29610;49.022;12.114;2023-02-28T10:37:26;14.30;;;7.00;;
18793;SDS011;29610;49.022;12.114;2023-02-28T10:39:57;13.10;;;6.30;;
18793;SDS011;29610;49.022;12.114;2023-02-28T10:42:26;15.17;;;6.77;;
18793;SDS011;29610;49.022;12.114;2023-02-28T10:45:09;18.03;;;6.60;;
18793;SDS011;29610;49.022;12.114;2023-02-28T10:47:51;15.00;;;7.10;;
18793;SDS011;29610;49.022;12.114;2023-02-28T10:50:27;15.73;;;6.93;;
18793;SDS011;29610;49.022;12.114;2023-02-28T10:53:21;16.30;;;6.93;;
18793;SDS011;29610;49.022;12.114;2023-02-28T10:56:24;12.13;;;6.30;;
18793;SDS011;29610;49.022;12.114;2023-02-28T10:58:55;12.50;;;6.67;;
18793;SDS011;29610;49.022;12.114;2023-02-28T11:01:34;13.67;;;6.23;;
18793;SDS011;29610;49.022;12.114;2023-02-28T11:04:16;12.90;;;6.80;;
18793;SDS011;29610;49.022;12.114;2023-02-28T11:06:56;12.33;;;6.60;;
18793;SDS011;29610;49.022;12.114;2023-02-28T11:09:28;15.40;;;7.17;;
18793;SDS011;29610;49.022;12.114;2023-02-28T11:12:04;15.97;;;7.17;;
18793;SDS011;29610;49.022;12.114;2023-02-28T11:14:47;12.50;;;6.20;;
18793;SDS011;29610;49.022;12.114;2023-02-28T11:17:20;14.00;;;7.53;;
18793;SDS011;29610;49.022;12.114;2023-02-28T11:19:52;12.50;;;6.50;;
18793;SDS011;29610;49.022;12.114;2023-02-28T11:22:25;12.67;;;6.70;;
18793;SDS011;29610;49.022;12.114;2023-02-28T11:24:59;12.60;;;6.73;;
18793;SDS011;29610;49.022;12.114;2023-02-28T11:27:50;14.57;;;6.77;;
18793;SDS011;29610;49.022;12.114;2023-02-28T11:30:24;13.17;;;6.20;;
18793;SDS011;29610;49.022;12.114;2023-02-28T11:33:18;15.53;;;7.40;;
18793;SDS011;29610;49.022;12.114;2023-02-28T11:35:53;13.50;;;7.00;;
18793;SDS011;29610;49.022;12.114;2023-02-28T11:38:29;15.77;;;7.73;;
18793;SDS011;29610;49.022;12.114;2023-02-28T11:41:10;14.50;;;7.57;;
18793;SDS011;29610;49.022;12.114;2023-02-28T11:44:18;13.33;;;7.00;;
18793;SDS011;29610;49.022;12.114;2023-02-28T11:47:03;12.03;;;6.23;;
18793;SDS011;29610;49.022;12.114;2023-02-28T11:49:43;12.70;;;6.17;;
18793;SDS011;29610;49.022;12.114;2023-02-28T11:52:29;13.33;;;6.17;;
18793;SDS011;29610;49.022;12.114;2023-02-28T11:55:14;15.50;;;6.20;;
18793;SDS011;29610;49.022;12.114;2023-02-28T11:57:52;13.80;;;7.23;;
18793;SDS011;29610;49.022;12.114;2023-02-28T12:01:03;13.50;;;7.63;;
18793;SDS011;29610;49.022;12.114;2023-02-28T12:03:53;12.40;;;6.90;;
18793;SDS011;29610;49.022;12.114;2023-02-28T12:06:41;14.17;;;7.70;;
18793;SDS011;29610;49.022;12.114;2023-02-28T12:09:28;12.50;;;6.33;;
18793;SDS011;29610;49.022;12.114;2023-02-28T12:12:15;13.00;;;6.33;;
18793;SDS011;29610;49.022;12.114;2023-02-28T12:15:14;11.57;;;5.97;;
18793;SDS011;29610;49.022;12.114;2023-02-28T12:18:00;14.20;;;7.30;;
18793;SDS011;29610;49.022;12.114;2023-02-28T12:20:57;12.80;;;6.53;;
18793;SDS011;29610;49.022;12.114;2023-02-28T12:23:57;14.13;;;7.17;;
18793;SDS011;29610;49.022;12.114;2023-02-28T12:26:44;13.10;;;7.07;;
18793;SDS011;29610;49.022;12.114;2023-02-28T12:29:17;16.33;;;7.67;;
18793;SDS011;29610;49.022;12.114;2023-02-28T12:31:52;13.83;;;7.00;;
18793;SDS011;29610;49.022;12.114;2023-02-28T12:34:31;15.03;;;7.00;;
18793;SDS011;29610;49.022;12.114;2023-02-28T12:37:06;13.10;;;6.57;;
18793;SDS011;29610;49.022;12.114;2023-02-28T12:39:44;16.37;;;6.80;;
18793;SDS011;29610;49.022;12.114;2023-02-28T12:42:17;14.97;;;6.97;;
18793;SDS011;29610;49.022;12.114;2023-02-28T12:44:56;15.10;;;6.40;;
18793;SDS011;29610;49.022;12.114;2023-02-28T12:47:36;13.63;;;6.03;;
18793;SDS011;29610;49.022;12.114;2023-02-28T12:50:11;14.93;;;6.53;;
18793;SDS011;29610;49.022;12.114;2023-02-28T12:52:43;9.70;;;5.43;;
18793;SDS011;29610;49.022;12.114;2023-02-28T12:55:23;12.87;;;6.30;;
18793;SDS011;29610;49.022;12.114;2023-02-28T12:58:03;16.73;;;7.60;;
18793;SDS011;29610;49.022;12.114;2023-02-28T13:00:46;14.83;;;6.63;;
18793;SDS011;29610;49.022;12.114;2023-02-28T13:03:44;13.00;;;6.73;;
18793;SDS011;29610;49.022;12.114;2023-02-28T13:06:49;14.10;;;7.10;;
18793;SDS011;29610;49.022;12.114;2023-02-28T13:09:38;15.53;;;8.23;;
18793;SDS011;29610;49.022;12.114;2023-02-28T13:12:12;19.47;;;7.53;;
18793;SDS011;29610;49.022;12.114;2023-02-28T13:14:43;14.23;;;6.57;;
18793;SDS011;29610;49.022;12.114;2023-02-28T13:17:12;13.70;;;5.97;;
18793;SDS011;29610;49.022;12.114;2023-02-28T13:19:56;12.33;;;7.00;;
18793;SDS011;29610;49.022;12.114;2023-02-28T13:22:39;12.67;;;6.40;;
18793;SDS011;29610;49.022;12.114;2023-02-28T13:38:17;17.63;;;6.63;;
18793;SDS011;29610;49.022;12.114;2023-02-28T13:44:15;14.80;;;6.77;;
18793;SDS011;29610;49.022;12.114;2023-02-28T13:50:01;15.20;;;6.73;;
18793;SDS011;29610;49.022;12.114;2023-02-28T13:52:52;11.77;;;6.70;;
18793;SDS011;29610;49.022;12.114;2023-02-28T13:55:53;9.93;;;5.60;;
18793;SDS011;29610;49.022;12.114;2023-02-28T13:58:38;13.40;;;7.40;;
18793;SDS011;29610;49.022;12.114;2023-02-28T14:04:30;14.50;;;6.47;;
18793;SDS011;29610;49.022;12.114;2023-02-28T14:07:38;12.80;;;6.30;;
18793;SDS011;29610;49.022;12.114;2023-02-28T14:10:21;10.70;;;6.00;;
18793;SDS011;29610;49.022;12.114;2023-02-28T14:12:57;11.07;;;5.90;;
18793;SDS011;29610;49.022;12.114;2023-02-28T14:15:38;13.13;;;6.57;;
18793;SDS011;29610;49.022;12.114;2023-02-28T14:18:24;12.83;;;6.20;;
18793;SDS011;29610;49.022;12.114;2023-02-28T14:21:01;12.33;;;6.60;;
18793;SDS011;29610;49.022;12.114;2023-02-28T14:30:14;10.90;;;6.37;;
18793;SDS011;29610;49.022;12.114;2023-02-28T14:33:10;11.60;;;5.97;;
18793;SDS011;29610;49.022;12.114;2023-02-28T14:35:56;13.43;;;6.70;;
18793;SDS011;29610;49.022;12.114;2023-02-28T14:38:36;12.40;;;5.33;;
18793;SDS011;29610;49.022;12.114;2023-02-28T14:41:18;22.23;;;7.00;;
18793;SDS011;29610;49.022;12.114;2023-02-28T14:43:52;14.60;;;7.47;;
18793;SDS011;29610;49.022;12.114;2023-02-28T14:46:26;14.77;;;7.27;;
18793;SDS011;29610;49.022;12.114;2023-02-28T14:49:05;15.70;;;6.77;;
18793;SDS011;29610;49.022;12.114;2023-02-28T14:51:43;13.27;;;6.23;;
18793;SDS011;29610;49.022;12.114;2023-02-28T14:54:14;14.83;;;6.50;;
18793;SDS011;29610;49.022;12.114;2023-02-28T14:56:50;11.40;;;5.90;;
18793;SDS011;29610;49.022;12.114;2023-02-28T14:59:23;12.73;;;7.50;;
18793;SDS011;29610;49.022;12.114;2023-02-28T15:02:17;12.80;;;6.63;;
18793;SDS011;29610;49.022;12.114;2023-02-28T15:04:55;15.67;;;6.80;;
18793;SDS011;29610;49.022;12.114;2023-02-28T15:07:26;14.83;;;7.40;;
18793;SDS011;29610;49.022;12.114;2023-02-28T15:10:13;13.17;;;6.80;;
18793;SDS011;29610;49.022;12.114;2023-02-28T15:12:51;19.53;;;7.60;;
18793;SDS011;29610;49.022;12.114;2023-02-28T15:15:23;13.63;;;6.40;;
18793;SDS011;29610;49.022;12.114;2023-02-28T15:18:07;15.93;;;7.37;;
18793;SDS011;29610;49.022;12.114;2023-02-28T15:20:49;16.53;;;7.63;;
18793;SDS011;29610;49.022;12.114;2023-02-28T15:23:19;13.03;;;7.30;;
18793;SDS011;29610;49.022;12.114;2023-02-28T15:25:50;13.60;;;7.80;;
18793;SDS011;29610;49.022;12.114;2023-02-28T15:28:21;10.90;;;6.17;;
18793;SDS011;29610;49.022;12.114;2023-02-28T15:30:53;13.37;;;7.50;;
18793;SDS011;29610;49.022;12.114;2023-02-28T15:33:27;15.20;;;7.43;;
18793;SDS011;29610;49.022;12.114;2023-02-28T15:36:11;12.43;;;7.33;;
18793;SDS011;29610;49.022;12.114;2023-02-28T15:38:44;16.07;;;7.13;;
18793;SDS011;29610;49.022;12.114;2023-02-28T15:41:21;16.27;;;8.67;;